createdAt,value
2022-08-26T00:02:00.251Z,9.07
2022-08-26T00:04:27.289Z,8.87
2022-08-26T00:06:54.866Z,10.23
2022-08-26T00:09:23.175Z,8.70
2022-08-26T00:11:51.672Z,8.13
2022-08-26T00:14:31.168Z,7.40
2022-08-26T00:16:58.410Z,9.10
2022-08-26T00:19:25.479Z,7.05
2022-08-26T00:21:52.061Z,6.85
2022-08-26T00:24:20.820Z,6.95
2022-08-26T00:26:48.222Z,10.80
2022-08-26T00:29:24.631Z,8.77
2022-08-26T00:31:53.112Z,6.03
2022-08-26T00:34:19.770Z,12.50
2022-08-26T00:36:47.223Z,7.25
2022-08-26T00:39:15.766Z,9.70
2022-08-26T00:41:43.233Z,9.02
2022-08-26T00:44:11.001Z,10.45
2022-08-26T00:46:46.931Z,8.30
2022-08-26T00:49:16.728Z,8.13
2022-08-26T00:51:51.169Z,9.63
2022-08-26T00:54:20.776Z,8.98
2022-08-26T00:57:00.635Z,8.32
2022-08-26T00:59:29.167Z,8.75
2022-08-26T01:02:00.228Z,6.25
2022-08-26T01:04:30.700Z,7.70
2022-08-26T01:06:57.576Z,9.98
2022-08-26T01:09:24.369Z,6.88
2022-08-26T01:11:54.645Z,7.65
2022-08-26T01:14:22.533Z,8.02
2022-08-26T01:16:49.303Z,8.70
2022-08-26T01:19:21.786Z,6.85
2022-08-26T01:21:55.497Z,7.70
2022-08-26T01:24:21.953Z,6.88
2022-08-26T01:26:52.116Z,7.75
2022-08-26T01:29:20.175Z,9.90
2022-08-26T01:32:10.497Z,7.65
2022-08-26T01:34:38.657Z,6.47
2022-08-26T01:37:13.634Z,7.72
2022-08-26T01:39:45.116Z,6.03
2022-08-26T01:42:14.602Z,7.45
2022-08-26T01:45:06.311Z,6.55
2022-08-26T01:47:46.114Z,5.82
2022-08-26T01:50:28.180Z,9.23
2022-08-26T01:52:58.067Z,8.90
2022-08-26T01:55:33.432Z,6.30
2022-08-26T01:58:04.758Z,6.57
2022-08-26T02:00:41.618Z,11.07
2022-08-26T02:05:55.027Z,6.60
2022-08-26T02:08:35.873Z,6.82
2022-08-26T02:11:02.548Z,7.75
2022-08-26T02:13:30.515Z,7.32
2022-08-26T02:15:58.183Z,10.02
2022-08-26T02:18:25.951Z,7.18
2022-08-26T02:20:53.610Z,11.88
2022-08-26T02:23:20.175Z,7.85
2022-08-26T02:26:00.790Z,7.18
2022-08-26T02:28:32.273Z,9.50
2022-08-26T02:30:58.916Z,6.38
2022-08-26T02:33:28.460Z,7.40
2022-08-26T02:35:54.930Z,12.27
2022-08-26T02:38:21.417Z,6.93
2022-08-26T02:40:48.181Z,9.10
2022-08-26T02:43:14.808Z,7.32
2022-08-26T02:45:41.884Z,6.15
2022-08-26T02:48:11.625Z,9.20
2022-08-26T02:50:39.314Z,7.32
2022-08-26T02:53:07.279Z,6.07
2022-08-26T02:55:34.487Z,9.75
2022-08-26T02:58:01.488Z,7.10
2022-08-26T03:00:29.501Z,8.55
2022-08-26T03:02:56.524Z,9.98
2022-08-26T03:05:24.069Z,7.97
2022-08-26T03:07:51.560Z,8.82
2022-08-26T03:10:18.406Z,8.32
2022-08-26T03:12:47.520Z,8.65
2022-08-26T03:15:17.900Z,9.15
2022-08-26T03:17:47.301Z,8.40
2022-08-26T03:20:17.497Z,8.02
2022-08-26T03:22:44.570Z,10.70
2022-08-26T03:25:13.510Z,8.00
2022-08-26T03:27:41.337Z,6.95
2022-08-26T03:30:29.101Z,6.90
2022-08-26T03:32:55.573Z,8.70
2022-08-26T03:35:22.417Z,6.85
2022-08-26T03:37:49.136Z,6.80
2022-08-26T03:40:23.000Z,8.15
2022-08-26T03:42:50.123Z,9.50
2022-08-26T03:45:17.865Z,9.77
2022-08-26T03:47:44.943Z,7.32
2022-08-26T03:50:14.028Z,8.10
2022-08-26T03:55:10.965Z,8.00
2022-08-26T03:57:43.820Z,8.48
2022-08-26T04:00:18.389Z,8.27
2022-08-26T04:02:46.628Z,6.60
2022-08-26T04:05:17.381Z,6.82
2022-08-26T04:07:44.508Z,9.02
2022-08-26T04:10:12.743Z,7.05
2022-08-26T04:12:39.621Z,8.27
2022-08-26T04:15:08.056Z,9.00
2022-08-26T04:17:34.766Z,7.50
2022-08-26T04:20:02.619Z,7.88
2022-08-26T04:22:29.381Z,9.10
2022-08-26T04:24:55.991Z,6.65
2022-08-26T04:27:32.148Z,6.55
2022-08-26T04:30:25.315Z,9.27
2022-08-26T04:32:52.363Z,7.53
2022-08-26T04:35:25.459Z,6.53
2022-08-26T04:41:31.647Z,6.40
2022-08-26T04:43:58.341Z,6.90
2022-08-26T04:46:25.403Z,8.88
2022-08-26T04:48:53.350Z,11.85
2022-08-26T04:51:20.876Z,7.35
2022-08-26T04:53:47.483Z,10.15
2022-08-26T04:56:14.273Z,7.90
2022-08-26T04:59:05.143Z,9.73
2022-08-26T05:01:34.599Z,8.10
2022-08-26T05:04:07.986Z,7.90
2022-08-26T05:06:36.911Z,8.57
2022-08-26T05:09:03.884Z,7.80
2022-08-26T05:11:30.336Z,10.32
2022-08-26T05:14:01.663Z,7.38
2022-08-26T05:16:30.284Z,10.38
2022-08-26T05:18:57.489Z,7.57
2022-08-26T05:21:26.588Z,8.90
2022-08-26T05:23:56.547Z,8.40
2022-08-26T05:26:25.775Z,8.18
2022-08-26T05:28:54.839Z,11.80
2022-08-26T05:33:57.448Z,10.98
2022-08-26T05:36:26.992Z,12.97
2022-08-26T05:38:54.369Z,12.43
2022-08-26T05:41:24.836Z,9.98
2022-08-26T05:43:51.981Z,10.98
2022-08-26T05:46:18.923Z,13.45
2022-08-26T05:48:46.086Z,12.55
2022-08-26T05:51:14.115Z,10.48
2022-08-26T05:53:43.810Z,9.82
2022-08-26T05:56:12.602Z,12.27
2022-08-26T05:58:41.020Z,9.13
2022-08-26T06:01:14.341Z,10.27
2022-08-26T06:03:46.790Z,11.50
2022-08-26T06:06:19.966Z,10.85
2022-08-26T06:08:47.558Z,9.77
2022-08-26T06:11:18.682Z,11.40
2022-08-26T06:13:45.929Z,9.23
2022-08-26T06:16:15.916Z,10.80
2022-08-26T06:18:44.677Z,11.88
2022-08-26T06:21:29.365Z,11.93
2022-08-26T06:24:17.541Z,10.15
2022-08-26T06:26:51.084Z,14.40
2022-08-26T06:29:24.653Z,14.75
2022-08-26T06:31:52.713Z,11.73
2022-08-26T06:34:19.428Z,13.98
2022-08-26T06:36:47.169Z,11.25
2022-08-26T06:39:15.841Z,12.00
2022-08-26T06:41:44.961Z,13.75
2022-08-26T06:44:17.528Z,11.45
2022-08-26T06:46:45.610Z,20.10
2022-08-26T06:49:12.846Z,11.32
2022-08-26T06:51:40.700Z,13.23
2022-08-26T06:54:07.760Z,16.67
2022-08-26T06:56:37.228Z,13.02
2022-08-26T06:59:04.037Z,13.52
2022-08-26T07:01:37.036Z,12.68
2022-08-26T07:04:07.902Z,13.57
2022-08-26T07:06:39.862Z,15.63
2022-08-26T07:09:09.964Z,15.52
2022-08-26T07:11:38.776Z,12.55
2022-08-26T07:14:06.555Z,11.93
2022-08-26T07:16:33.709Z,15.75
2022-08-26T07:21:38.061Z,12.30
2022-08-26T07:24:04.625Z,15.02
2022-08-26T07:26:31.588Z,14.60
2022-08-26T07:28:59.645Z,11.55
2022-08-26T07:31:28.497Z,11.82
2022-08-26T07:33:56.830Z,14.38
2022-08-26T07:36:24.276Z,11.95
2022-08-26T07:38:51.601Z,15.20
2022-08-26T07:41:20.030Z,13.82
2022-08-26T07:43:46.621Z,13.18
2022-08-26T07:46:20.794Z,12.50
2022-08-26T07:48:53.874Z,12.77
2022-08-26T07:51:21.509Z,12.82
2022-08-26T07:53:52.806Z,13.00
2022-08-26T07:56:23.295Z,11.68
2022-08-26T07:58:53.457Z,9.30
2022-08-26T08:01:21.035Z,10.65
2022-08-26T08:03:51.225Z,14.77
2022-08-26T08:06:22.255Z,8.70
2022-08-26T08:08:50.928Z,9.90
2022-08-26T08:11:22.441Z,9.55
2022-08-26T08:13:56.298Z,8.82
2022-08-26T08:16:25.169Z,12.82
2022-08-26T08:18:53.335Z,11.43
2022-08-26T08:21:21.842Z,15.82
2022-08-26T08:23:51.769Z,12.70
2022-08-26T08:26:18.466Z,10.75
2022-08-26T08:28:46.159Z,12.02
2022-08-26T08:31:45.040Z,9.65
2022-08-26T08:34:09.106Z,11.65
2022-08-26T08:36:36.138Z,13.35
2022-08-26T08:39:03.217Z,13.43
2022-08-26T08:41:58.577Z,8.90
2022-08-26T08:47:16.212Z,11.65
2022-08-26T08:49:43.369Z,12.52
2022-08-26T08:52:28.963Z,12.27
2022-08-26T08:54:56.020Z,10.68
2022-08-26T08:57:32.811Z,11.68
2022-08-26T09:00:30.218Z,9.27
2022-08-26T09:03:10.775Z,9.05
2022-08-26T09:05:48.498Z,9.30
2022-08-26T09:08:19.731Z,9.02
2022-08-26T09:10:51.228Z,14.77
2022-08-26T09:13:26.281Z,19.23
2022-08-26T09:16:03.618Z,16.75
2022-08-26T09:18:37.341Z,14.85
2022-08-26T09:21:16.769Z,16.27
2022-08-26T09:23:47.055Z,16.10
2022-08-26T09:26:19.810Z,10.00
2022-08-26T09:28:49.625Z,8.68
2022-08-26T09:31:22.386Z,9.48
2022-08-26T09:34:06.053Z,9.25
2022-08-26T09:36:53.775Z,7.45
2022-08-26T09:39:23.508Z,9.45
2022-08-26T09:42:09.562Z,11.82
2022-08-26T09:44:56.555Z,9.60
2022-08-26T09:47:27.859Z,9.38
2022-08-26T09:50:34.129Z,8.80
2022-08-26T09:53:28.521Z,10.60
2022-08-26T09:56:18.898Z,11.60
2022-08-26T09:58:47.382Z,10.02
2022-08-26T10:01:25.936Z,11.00
2022-08-26T10:03:52.599Z,12.65
2022-08-26T10:06:23.631Z,9.50
2022-08-26T10:08:54.416Z,10.20
2022-08-26T10:11:24.803Z,10.32
2022-08-26T10:13:55.217Z,12.50
2022-08-26T10:16:25.454Z,10.63
2022-08-26T10:19:06.528Z,10.18
2022-08-26T10:21:54.797Z,10.63
2022-08-26T10:24:39.550Z,9.13
2022-08-26T10:27:14.651Z,9.13
2022-08-26T10:29:44.656Z,10.82
2022-08-26T10:32:26.822Z,9.88
2022-08-26T10:34:54.387Z,11.73
2022-08-26T10:37:23.398Z,9.30
2022-08-26T10:40:04.415Z,10.48
2022-08-26T10:42:40.840Z,9.55
2022-08-26T10:45:20.137Z,11.63
2022-08-26T10:50:28.257Z,9.52
2022-08-26T10:53:19.486Z,10.50
2022-08-26T10:56:15.767Z,10.77
2022-08-26T10:58:51.331Z,12.52
2022-08-26T11:01:40.871Z,10.50
2022-08-26T11:04:35.007Z,11.00
2022-08-26T11:07:37.217Z,10.70
2022-08-26T11:10:45.158Z,11.52
2022-08-26T11:13:12.049Z,12.10
2022-08-26T11:15:38.433Z,15.95
2022-08-26T11:18:45.129Z,13.82
2022-08-26T11:22:02.164Z,12.15
2022-08-26T11:24:44.019Z,13.93
2022-08-26T11:27:36.681Z,15.23
2022-08-26T11:30:33.827Z,12.70
2022-08-26T11:33:00.831Z,11.13
2022-08-26T11:35:48.497Z,14.20
2022-08-26T11:38:18.603Z,11.20
2022-08-26T11:40:45.247Z,15.27
2022-08-26T11:43:21.949Z,18.83
2022-08-26T11:46:01.867Z,13.27
2022-08-26T11:48:34.754Z,13.85
2022-08-26T11:51:11.702Z,12.88
2022-08-26T11:53:42.964Z,13.25
2022-08-26T11:56:17.948Z,16.58
2022-08-26T11:58:48.116Z,17.60
2022-08-26T12:01:26.617Z,13.80
2022-08-26T12:03:55.145Z,11.55
2022-08-26T12:06:36.430Z,9.60
2022-08-26T12:09:12.110Z,10.93
2022-08-26T12:11:40.043Z,16.15
2022-08-26T12:14:09.619Z,10.48
2022-08-26T12:16:39.027Z,12.80
2022-08-26T12:19:26.299Z,14.38
2022-08-26T12:22:01.453Z,12.80
2022-08-26T12:24:28.109Z,10.57
2022-08-26T12:27:17.909Z,10.63
2022-08-26T12:29:44.597Z,10.18
2022-08-26T12:32:17.689Z,8.20
2022-08-26T12:34:45.668Z,7.40
2022-08-26T12:37:13.960Z,12.23
2022-08-26T12:42:17.119Z,8.13
2022-08-26T12:44:53.871Z,11.75
2022-08-26T12:47:43.203Z,11.82
2022-08-26T12:50:31.291Z,11.10
2022-08-26T12:53:03.955Z,9.10
2022-08-26T12:55:51.953Z,11.00
2022-08-26T12:58:18.303Z,10.27
2022-08-26T13:00:48.365Z,9.90
2022-08-26T13:03:47.992Z,12.85
2022-08-26T13:06:23.291Z,8.52
2022-08-26T13:08:54.804Z,11.18
2022-08-26T13:11:28.925Z,9.95
2022-08-26T13:14:06.881Z,12.27
2022-08-26T13:16:34.264Z,13.35
2022-08-26T13:19:03.958Z,9.07
2022-08-26T13:21:37.502Z,8.13
2022-08-26T13:24:12.043Z,11.18
2022-08-26T13:26:39.843Z,11.82
2022-08-26T13:29:10.133Z,13.23
2022-08-26T13:31:39.362Z,9.23
2022-08-26T13:34:06.049Z,7.20
2022-08-26T13:36:32.714Z,10.68
2022-08-26T13:38:59.225Z,7.20
2022-08-26T13:41:29.121Z,8.07
2022-08-26T13:43:56.363Z,9.13
2022-08-26T13:46:22.875Z,8.15
2022-08-26T13:48:49.388Z,9.68
2022-08-26T13:51:18.492Z,7.93
2022-08-26T13:53:44.955Z,8.38
2022-08-26T13:56:11.416Z,7.35
2022-08-26T13:58:37.878Z,6.40
2022-08-26T14:01:10.767Z,8.73
2022-08-26T14:03:37.502Z,7.47
2022-08-26T14:06:04.110Z,8.65
2022-08-26T14:08:32.144Z,8.93
2022-08-26T14:10:59.277Z,8.53
2022-08-26T14:13:25.890Z,7.32
2022-08-26T14:15:52.806Z,6.15
2022-08-26T14:18:22.669Z,9.10
2022-08-26T14:20:52.827Z,7.25
2022-08-26T14:23:19.305Z,6.05
2022-08-26T14:25:45.797Z,7.88
2022-08-26T14:28:12.352Z,8.73
2022-08-26T14:30:42.794Z,7.68
2022-08-26T14:33:12.738Z,6.13
2022-08-26T14:35:39.504Z,6.95
2022-08-26T14:38:06.153Z,12.10
2022-08-26T14:40:34.021Z,12.68
2022-08-26T14:43:05.360Z,10.65
2022-08-26T14:45:32.834Z,12.35
2022-08-26T14:47:59.751Z,14.20
2022-08-26T14:50:26.318Z,12.27
2022-08-26T14:53:11.455Z,12.55
2022-08-26T14:55:40.471Z,13.35
2022-08-26T14:58:08.344Z,13.48
2022-08-26T15:00:36.141Z,16.70
2022-08-26T15:03:33.776Z,18.50
2022-08-26T15:06:00.698Z,14.70
2022-08-26T15:11:32.916Z,14.40
2022-08-26T15:14:19.369Z,14.50
2022-08-26T15:16:49.650Z,13.77
2022-08-26T15:19:25.839Z,12.20
2022-08-26T15:21:52.556Z,17.50
2022-08-26T15:24:58.522Z,13.80
2022-08-26T15:27:25.314Z,13.70
2022-08-26T15:29:51.847Z,8.82
2022-08-26T15:32:18.605Z,7.57
2022-08-26T15:34:52.453Z,7.55
2022-08-26T15:37:27.980Z,5.93
2022-08-26T15:39:59.195Z,5.70
2022-08-26T15:42:32.775Z,5.20
2022-08-26T15:45:05.769Z,7.75
2022-08-26T15:48:05.608Z,8.35
2022-08-26T15:50:33.571Z,8.85
2022-08-26T15:53:01.315Z,10.37
2022-08-26T15:55:27.754Z,10.43
2022-08-26T15:57:55.545Z,10.70
2022-08-26T16:00:39.817Z,11.20
2022-08-26T16:03:31.763Z,12.27
2022-08-26T16:05:58.415Z,11.15
2022-08-26T16:08:25.337Z,10.00
2022-08-26T16:10:55.408Z,12.27
2022-08-26T16:13:51.546Z,11.88
2022-08-26T16:16:19.830Z,14.45
2022-08-26T16:18:50.452Z,15.82
2022-08-26T16:21:36.686Z,16.08
2022-08-26T16:24:39.539Z,15.45
2022-08-26T16:27:06.769Z,15.45
2022-08-26T16:29:40.432Z,15.65
2022-08-26T16:32:08.791Z,13.73
2022-08-26T16:34:37.681Z,14.68
2022-08-26T16:37:20.893Z,12.95
2022-08-26T16:40:05.963Z,13.68
2022-08-26T16:42:33.137Z,12.70
2022-08-26T16:44:59.680Z,11.82
2022-08-26T16:47:26.303Z,13.13
2022-08-26T16:49:53.058Z,10.82
2022-08-26T16:52:19.561Z,17.17
2022-08-26T16:54:46.015Z,11.40
2022-08-26T16:57:12.943Z,11.93
2022-08-26T16:59:40.189Z,14.25
2022-08-26T17:02:07.616Z,13.75
2022-08-26T17:04:34.147Z,12.00
2022-08-26T17:07:00.647Z,9.52
2022-08-26T17:09:27.135Z,12.98
2022-08-26T17:11:54.251Z,11.75
2022-08-26T17:14:21.244Z,10.52
2022-08-26T17:16:51.045Z,11.25
2022-08-26T17:19:19.129Z,10.45
2022-08-26T17:21:46.223Z,8.38
2022-08-26T17:24:12.744Z,14.23
2022-08-26T17:26:39.238Z,13.65
2022-08-26T17:29:07.371Z,10.35
2022-08-26T17:31:34.591Z,9.00
2022-08-26T17:34:01.111Z,12.65
2022-08-26T17:36:28.476Z,11.27
2022-08-26T17:38:55.904Z,10.95
2022-08-26T17:41:22.367Z,15.25
2022-08-26T17:43:48.830Z,11.18
2022-08-26T17:46:15.471Z,11.88
2022-08-26T17:48:42.098Z,11.38
2022-08-26T17:51:10.988Z,11.45
2022-08-26T17:56:12.568Z,10.15
2022-08-26T17:58:39.875Z,13.73
2022-08-26T18:01:06.555Z,10.68
2022-08-26T18:03:33.555Z,14.90
2022-08-26T18:06:00.016Z,15.35
2022-08-26T18:08:26.665Z,18.10
2022-08-26T18:10:53.169Z,15.68
2022-08-26T18:13:19.623Z,17.65
2022-08-26T18:15:46.949Z,28.55
2022-08-26T18:18:14.464Z,18.08
2022-08-26T18:20:42.865Z,18.00
2022-08-26T18:23:09.652Z,17.80
2022-08-26T18:25:40.394Z,14.98
2022-08-26T18:28:07.429Z,15.25
2022-08-26T18:30:34.278Z,16.70
2022-08-26T18:33:01.002Z,14.00
2022-08-26T18:35:29.763Z,16.48
2022-08-26T18:37:57.452Z,19.33
2022-08-26T18:40:27.982Z,20.13
2022-08-26T18:42:54.503Z,17.77
2022-08-26T18:51:34.235Z,20.92
2022-08-26T18:54:06.828Z,21.42
2022-08-26T18:56:35.385Z,23.00
2022-08-26T18:59:08.675Z,23.23
2022-08-26T19:01:36.341Z,24.33
2022-08-26T19:04:04.790Z,24.63
2022-08-26T19:06:33.022Z,24.52
2022-08-26T19:09:03.122Z,25.45
2022-08-26T19:11:32.333Z,26.27
2022-08-26T19:14:07.372Z,25.52
2022-08-26T19:16:34.015Z,24.83
2022-08-26T19:19:01.776Z,23.98
2022-08-26T19:21:29.511Z,27.02
2022-08-26T19:23:57.930Z,25.52
2022-08-26T19:42:43.618Z,26.08
2022-08-26T19:45:24.548Z,30.15
2022-08-26T19:47:52.881Z,26.48
2022-08-26T19:50:20.458Z,26.67
2022-08-26T19:53:15.677Z,25.48
2022-08-26T19:55:57.653Z,24.35
2022-08-26T19:58:24.119Z,24.50
2022-08-26T20:01:43.836Z,27.45
2022-08-26T20:04:47.269Z,24.92
2022-08-26T20:07:20.521Z,27.08
2022-08-26T20:09:48.222Z,25.88
2022-08-26T20:12:41.601Z,25.17
2022-08-26T20:15:15.867Z,24.85
2022-08-26T20:17:43.536Z,24.73
2022-08-26T20:20:33.243Z,24.85
2022-08-26T20:23:36.934Z,23.08
2022-08-26T20:26:03.969Z,24.40
2022-08-26T20:28:34.925Z,24.02
2022-08-26T20:31:02.179Z,24.05
2022-08-26T20:34:19.773Z,23.80
2022-08-26T20:40:08.682Z,23.02
2022-08-26T20:42:35.614Z,22.90
2022-08-26T20:45:03.155Z,24.27
2022-08-26T20:52:40.966Z,22.98
2022-08-26T20:55:07.923Z,24.08
2022-08-26T20:57:41.910Z,22.90
2022-08-26T21:00:11.814Z,25.13
2022-08-26T21:02:46.364Z,22.83
2022-08-26T21:05:12.971Z,22.50
2022-08-26T21:07:39.550Z,22.38
2022-08-26T21:14:26.131Z,22.52
2022-08-26T21:16:53.240Z,22.48
2022-08-26T21:19:19.860Z,20.70
2022-08-26T21:21:52.488Z,23.90
2022-08-26T21:24:19.811Z,21.90
2022-08-26T21:26:46.651Z,21.35
2022-08-26T21:30:16.623Z,21.52
2022-08-26T21:32:46.396Z,23.17
2022-08-26T21:35:12.953Z,20.85
2022-08-26T21:37:45.255Z,20.90
2022-08-26T21:40:12.245Z,20.58
2022-08-26T21:43:16.593Z,20.42
2022-08-26T21:46:14.351Z,18.65
2022-08-26T21:48:56.969Z,18.27
2022-08-26T21:51:30.224Z,18.73
2022-08-26T21:53:57.730Z,17.98
2022-08-26T21:56:56.816Z,17.83
2022-08-26T21:59:25.634Z,17.48
2022-08-26T22:01:52.163Z,18.52
2022-08-26T22:04:18.640Z,16.92
2022-08-26T22:06:47.646Z,17.73
2022-08-26T22:12:46.079Z,20.42
2022-08-26T22:15:13.164Z,15.98
2022-08-26T22:17:48.648Z,17.15
2022-08-26T22:20:16.472Z,16.15
2022-08-26T22:22:43.346Z,17.13
2022-08-26T22:25:10.006Z,15.57
2022-08-26T22:27:40.451Z,16.38
2022-08-26T22:30:11.812Z,15.30
2022-08-26T22:37:08.935Z,14.13
2022-08-26T22:39:39.815Z,14.93
2022-08-26T22:42:57.935Z,15.18
2022-08-26T22:45:41.258Z,17.33
2022-08-26T22:48:08.627Z,14.75
2022-08-26T22:50:44.104Z,17.88
2022-08-26T22:53:35.236Z,14.57
2022-08-26T22:56:26.405Z,15.10
2022-08-26T22:58:52.947Z,15.38
2022-08-26T23:01:19.482Z,15.23
2022-08-26T23:04:05.264Z,16.98
2022-08-26T23:06:57.208Z,16.42
2022-08-26T23:09:24.194Z,14.50
2022-08-26T23:11:55.984Z,14.38
2022-08-26T23:14:39.346Z,14.68
2022-08-26T23:17:14.253Z,15.35
2022-08-26T23:19:41.936Z,14.65
2022-08-26T23:22:33.772Z,14.15
2022-08-26T23:25:02.342Z,15.90
2022-08-26T23:27:36.223Z,13.88
2022-08-26T23:30:05.248Z,14.27
2022-08-26T23:35:21.596Z,14.25
2022-08-26T23:37:51.174Z,17.17
2022-08-26T23:40:22.991Z,13.77
2022-08-26T23:42:51.821Z,15.45
2022-08-26T23:45:19.895Z,14.93
2022-08-26T23:47:58.437Z,14.57
2022-08-26T23:56:00.731Z,16.00
2022-08-26T23:58:45.010Z,13.88
